sensor_id;sensor_type;location;lat;lon;timestamp;P1;durP1;ratioP1;P2;durP2;ratioP2
12214;SDS011;6170;42.206;24.142;2023-02-08T00:00:37;33.47;;;15.18;;
12214;SDS011;6170;42.206;24.142;2023-02-08T00:03:04;31.23;;;13.40;;
12214;SDS011;6170;42.206;24.142;2023-02-08T00:05:32;41.47;;;15.73;;
12214;SDS011;6170;42.206;24.142;2023-02-08T00:07:59;40.65;;;14.68;;
12214;SDS011;6170;42.206;24.142;2023-02-08T00:10:26;31.80;;;13.13;;
12214;SDS011;6170;42.206;24.142;2023-02-08T00:12:52;36.83;;;15.88;;
12214;SDS011;6170;42.206;24.142;2023-02-08T00:15:19;34.95;;;13.35;;
12214;SDS011;6170;42.206;24.142;2023-02-08T00:17:46;31.88;;;12.80;;
12214;SDS011;6170;42.206;24.142;2023-02-08T00:20:13;29.65;;;13.50;;
12214;SDS011;6170;42.206;24.142;2023-02-08T00:22:41;32.10;;;13.38;;
12214;SDS011;6170;42.206;24.142;2023-02-08T00:25:08;32.63;;;13.25;;
12214;SDS011;6170;42.206;24.142;2023-02-08T00:27:35;26.23;;;11.88;;
12214;SDS011;6170;42.206;24.142;2023-02-08T00:30:03;23.98;;;11.80;;
12214;SDS011;6170;42.206;24.142;2023-02-08T00:32:31;25.92;;;11.82;;
12214;SDS011;6170;42.206;24.142;2023-02-08T00:34:58;28.13;;;11.77;;
12214;SDS011;6170;42.206;24.142;2023-02-08T00:37:24;32.47;;;12.95;;
12214;SDS011;6170;42.206;24.142;2023-02-08T00:39:53;36.63;;;16.00;;
12214;SDS011;6170;42.206;24.142;2023-02-08T00:42:19;40.13;;;16.92;;
12214;SDS011;6170;42.206;24.142;2023-02-08T00:44:47;35.95;;;14.30;;
12214;SDS011;6170;42.206;24.142;2023-02-08T00:47:13;25.30;;;12.48;;
12214;SDS011;6170;42.206;24.142;2023-02-08T00:49:40;28.60;;;11.85;;
12214;SDS011;6170;42.206;24.142;2023-02-08T00:52:07;27.73;;;13.02;;
12214;SDS011;6170;42.206;24.142;2023-02-08T00:54:33;27.13;;;12.02;;
12214;SDS011;6170;42.206;24.142;2023-02-08T00:57:02;28.10;;;12.60;;
12214;SDS011;6170;42.206;24.142;2023-02-08T00:59:29;25.38;;;12.30;;
12214;SDS011;6170;42.206;24.142;2023-02-08T01:01:55;23.60;;;11.02;;
12214;SDS011;6170;42.206;24.142;2023-02-08T01:04:22;22.02;;;10.10;;
12214;SDS011;6170;42.206;24.142;2023-02-08T01:06:49;25.17;;;11.52;;
12214;SDS011;6170;42.206;24.142;2023-02-08T01:09:16;31.98;;;12.77;;
12214;SDS011;6170;42.206;24.142;2023-02-08T01:11:43;34.08;;;13.07;;
12214;SDS011;6170;42.206;24.142;2023-02-08T01:14:11;26.55;;;12.60;;
12214;SDS011;6170;42.206;24.142;2023-02-08T01:16:38;37.05;;;13.82;;
12214;SDS011;6170;42.206;24.142;2023-02-08T01:19:04;30.42;;;13.05;;
12214;SDS011;6170;42.206;24.142;2023-02-08T01:21:32;38.45;;;15.02;;
12214;SDS011;6170;42.206;24.142;2023-02-08T01:24:00;44.92;;;16.52;;
12214;SDS011;6170;42.206;24.142;2023-02-08T01:26:28;31.20;;;12.70;;
12214;SDS011;6170;42.206;24.142;2023-02-08T01:28:55;24.38;;;11.18;;
12214;SDS011;6170;42.206;24.142;2023-02-08T01:31:25;25.42;;;12.45;;
12214;SDS011;6170;42.206;24.142;2023-02-08T01:33:54;31.35;;;12.38;;
12214;SDS011;6170;42.206;24.142;2023-02-08T01:36:21;26.38;;;11.70;;
12214;SDS011;6170;42.206;24.142;2023-02-08T01:38:48;26.80;;;10.63;;
12214;SDS011;6170;42.206;24.142;2023-02-08T01:41:16;26.70;;;11.80;;
12214;SDS011;6170;42.206;24.142;2023-02-08T01:43:58;22.52;;;11.63;;
12214;SDS011;6170;42.206;24.142;2023-02-08T01:46:29;25.35;;;11.20;;
12214;SDS011;6170;42.206;24.142;2023-02-08T01:49:00;22.95;;;10.30;;
12214;SDS011;6170;42.206;24.142;2023-02-08T01:51:30;20.23;;;9.48;;
12214;SDS011;6170;42.206;24.142;2023-02-08T01:54:00;26.95;;;11.68;;
12214;SDS011;6170;42.206;24.142;2023-02-08T01:56:30;22.60;;;10.45;;
12214;SDS011;6170;42.206;24.142;2023-02-08T01:59:00;21.67;;;9.10;;
12214;SDS011;6170;42.206;24.142;2023-02-08T02:01:33;20.85;;;9.80;;
12214;SDS011;6170;42.206;24.142;2023-02-08T02:04:00;24.80;;;10.50;;
12214;SDS011;6170;42.206;24.142;2023-02-08T02:06:30;22.67;;;10.88;;
12214;SDS011;6170;42.206;24.142;2023-02-08T02:09:01;23.13;;;10.98;;
12214;SDS011;6170;42.206;24.142;2023-02-08T02:11:35;25.17;;;10.82;;
12214;SDS011;6170;42.206;24.142;2023-02-08T02:14:03;24.17;;;10.23;;
12214;SDS011;6170;42.206;24.142;2023-02-08T02:16:30;24.90;;;10.52;;
12214;SDS011;6170;42.206;24.142;2023-02-08T02:18:58;25.23;;;11.27;;
12214;SDS011;6170;42.206;24.142;2023-02-08T02:21:34;24.45;;;11.45;;
12214;SDS011;6170;42.206;24.142;2023-02-08T02:24:35;23.73;;;10.25;;
12214;SDS011;6170;42.206;24.142;2023-02-08T02:30:29;25.60;;;11.68;;
12214;SDS011;6170;42.206;24.142;2023-02-08T02:33:12;21.90;;;10.50;;
12214;SDS011;6170;42.206;24.142;2023-02-08T02:35:59;20.58;;;10.63;;
12214;SDS011;6170;42.206;24.142;2023-02-08T02:38:34;23.33;;;10.90;;
12214;SDS011;6170;42.206;24.142;2023-02-08T02:41:16;23.30;;;11.20;;
12214;SDS011;6170;42.206;24.142;2023-02-08T02:44:06;26.45;;;10.85;;
12214;SDS011;6170;42.206;24.142;2023-02-08T02:46:40;20.65;;;10.02;;
12214;SDS011;6170;42.206;24.142;2023-02-08T02:49:14;19.42;;;10.10;;
12214;SDS011;6170;42.206;24.142;2023-02-08T02:51:47;22.90;;;10.23;;
12214;SDS011;6170;42.206;24.142;2023-02-08T02:54:21;25.10;;;9.68;;
12214;SDS011;6170;42.206;24.142;2023-02-08T02:56:52;22.13;;;9.93;;
12214;SDS011;6170;42.206;24.142;2023-02-08T02:59:24;22.73;;;10.13;;
12214;SDS011;6170;42.206;24.142;2023-02-08T03:01:52;24.45;;;10.48;;
12214;SDS011;6170;42.206;24.142;2023-02-08T03:07:15;21.55;;;9.98;;
12214;SDS011;6170;42.206;24.142;2023-02-08T03:09:55;20.52;;;9.88;;
12214;SDS011;6170;42.206;24.142;2023-02-08T03:12:34;22.60;;;9.77;;
12214;SDS011;6170;42.206;24.142;2023-02-08T03:15:11;22.45;;;9.02;;
12214;SDS011;6170;42.206;24.142;2023-02-08T03:17:52;20.33;;;10.30;;
12214;SDS011;6170;42.206;24.142;2023-02-08T03:20:31;23.75;;;10.15;;
12214;SDS011;6170;42.206;24.142;2023-02-08T03:23:05;25.02;;;10.50;;
12214;SDS011;6170;42.206;24.142;2023-02-08T03:28:10;20.13;;;9.65;;
12214;SDS011;6170;42.206;24.142;2023-02-08T03:30:46;19.33;;;9.80;;
12214;SDS011;6170;42.206;24.142;2023-02-08T03:33:20;23.15;;;10.23;;
12214;SDS011;6170;42.206;24.142;2023-02-08T03:35:53;42.13;;;14.45;;
12214;SDS011;6170;42.206;24.142;2023-02-08T03:38:30;33.00;;;12.35;;
12214;SDS011;6170;42.206;24.142;2023-02-08T03:41:01;27.23;;;10.38;;
12214;SDS011;6170;42.206;24.142;2023-02-08T03:43:32;35.30;;;13.55;;
12214;SDS011;6170;42.206;24.142;2023-02-08T03:46:02;32.08;;;12.95;;
12214;SDS011;6170;42.206;24.142;2023-02-08T03:48:37;34.72;;;12.77;;
12214;SDS011;6170;42.206;24.142;2023-02-08T03:51:07;42.47;;;15.88;;
12214;SDS011;6170;42.206;24.142;2023-02-08T03:53:35;43.08;;;15.25;;
12214;SDS011;6170;42.206;24.142;2023-02-08T03:56:06;56.63;;;19.85;;
12214;SDS011;6170;42.206;24.142;2023-02-08T03:58:37;50.58;;;18.75;;
12214;SDS011;6170;42.206;24.142;2023-02-08T04:01:11;42.30;;;15.70;;
12214;SDS011;6170;42.206;24.142;2023-02-08T04:03:41;36.92;;;13.02;;
12214;SDS011;6170;42.206;24.142;2023-02-08T04:06:11;51.08;;;19.33;;
12214;SDS011;6170;42.206;24.142;2023-02-08T04:08:38;44.78;;;16.65;;
12214;SDS011;6170;42.206;24.142;2023-02-08T04:11:05;102.28;;;26.92;;
12214;SDS011;6170;42.206;24.142;2023-02-08T04:13:32;69.57;;;23.60;;
12214;SDS011;6170;42.206;24.142;2023-02-08T04:15:58;57.25;;;19.60;;
12214;SDS011;6170;42.206;24.142;2023-02-08T04:18:25;53.47;;;18.85;;
12214;SDS011;6170;42.206;24.142;2023-02-08T04:20:52;55.65;;;15.93;;
12214;SDS011;6170;42.206;24.142;2023-02-08T04:23:20;43.78;;;17.00;;
12214;SDS011;6170;42.206;24.142;2023-02-08T04:25:47;45.53;;;15.23;;
12214;SDS011;6170;42.206;24.142;2023-02-08T04:28:14;30.13;;;13.02;;
12214;SDS011;6170;42.206;24.142;2023-02-08T04:30:40;33.35;;;13.50;;
12214;SDS011;6170;42.206;24.142;2023-02-08T04:33:07;33.30;;;12.88;;
12214;SDS011;6170;42.206;24.142;2023-02-08T04:35:35;36.60;;;14.10;;
12214;SDS011;6170;42.206;24.142;2023-02-08T04:38:02;60.00;;;20.35;;
12214;SDS011;6170;42.206;24.142;2023-02-08T04:40:30;50.63;;;17.52;;
12214;SDS011;6170;42.206;24.142;2023-02-08T04:42:57;31.30;;;13.57;;
12214;SDS011;6170;42.206;24.142;2023-02-08T04:45:24;26.88;;;12.75;;
12214;SDS011;6170;42.206;24.142;2023-02-08T04:47:52;36.72;;;15.18;;
12214;SDS011;6170;42.206;24.142;2023-02-08T04:50:18;27.38;;;12.70;;
12214;SDS011;6170;42.206;24.142;2023-02-08T04:52:45;30.20;;;13.52;;
12214;SDS011;6170;42.206;24.142;2023-02-08T04:55:12;25.13;;;12.27;;
12214;SDS011;6170;42.206;24.142;2023-02-08T04:57:40;25.85;;;11.63;;
12214;SDS011;6170;42.206;24.142;2023-02-08T05:00:07;27.20;;;13.10;;
12214;SDS011;6170;42.206;24.142;2023-02-08T05:02:35;25.73;;;12.20;;
12214;SDS011;6170;42.206;24.142;2023-02-08T05:05:02;26.02;;;12.27;;
12214;SDS011;6170;42.206;24.142;2023-02-08T05:07:29;28.83;;;13.35;;
12214;SDS011;6170;42.206;24.142;2023-02-08T05:09:55;31.10;;;12.68;;
12214;SDS011;6170;42.206;24.142;2023-02-08T05:12:22;25.08;;;12.02;;
12214;SDS011;6170;42.206;24.142;2023-02-08T05:14:50;26.10;;;12.10;;
12214;SDS011;6170;42.206;24.142;2023-02-08T05:17:17;28.02;;;13.23;;
12214;SDS011;6170;42.206;24.142;2023-02-08T05:19:44;27.67;;;12.98;;
12214;SDS011;6170;42.206;24.142;2023-02-08T05:22:10;31.63;;;13.32;;
12214;SDS011;6170;42.206;24.142;2023-02-08T05:24:37;30.85;;;13.45;;
12214;SDS011;6170;42.206;24.142;2023-02-08T05:27:04;30.95;;;13.93;;
12214;SDS011;6170;42.206;24.142;2023-02-08T05:29:31;29.73;;;14.00;;
12214;SDS011;6170;42.206;24.142;2023-02-08T05:31:59;31.77;;;14.48;;
12214;SDS011;6170;42.206;24.142;2023-02-08T05:34:26;27.98;;;13.43;;
12214;SDS011;6170;42.206;24.142;2023-02-08T05:36:53;26.25;;;12.52;;
12214;SDS011;6170;42.206;24.142;2023-02-08T05:39:20;36.92;;;14.55;;
12214;SDS011;6170;42.206;24.142;2023-02-08T05:41:46;27.02;;;12.77;;
12214;SDS011;6170;42.206;24.142;2023-02-08T05:44:13;30.13;;;13.70;;
12214;SDS011;6170;42.206;24.142;2023-02-08T05:46:40;28.05;;;12.48;;
12214;SDS011;6170;42.206;24.142;2023-02-08T05:49:08;28.95;;;12.57;;
12214;SDS011;6170;42.206;24.142;2023-02-08T05:51:35;30.42;;;13.80;;
12214;SDS011;6170;42.206;24.142;2023-02-08T05:54:02;32.08;;;12.48;;
12214;SDS011;6170;42.206;24.142;2023-02-08T05:56:29;25.20;;;12.27;;
12214;SDS011;6170;42.206;24.142;2023-02-08T05:58:56;26.02;;;11.80;;
12214;SDS011;6170;42.206;24.142;2023-02-08T06:01:25;22.00;;;11.07;;
12214;SDS011;6170;42.206;24.142;2023-02-08T06:03:52;27.20;;;12.05;;
12214;SDS011;6170;42.206;24.142;2023-02-08T06:06:20;26.13;;;12.68;;
12214;SDS011;6170;42.206;24.142;2023-02-08T06:08:47;27.15;;;13.40;;
12214;SDS011;6170;42.206;24.142;2023-02-08T06:11:14;28.05;;;14.13;;
12214;SDS011;6170;42.206;24.142;2023-02-08T06:13:41;33.83;;;15.05;;
12214;SDS011;6170;42.206;24.142;2023-02-08T06:16:07;35.10;;;14.15;;
12214;SDS011;6170;42.206;24.142;2023-02-08T06:18:34;27.15;;;13.43;;
12214;SDS011;6170;42.206;24.142;2023-02-08T06:21:01;30.90;;;14.15;;
12214;SDS011;6170;42.206;24.142;2023-02-08T06:23:30;28.20;;;14.80;;
12214;SDS011;6170;42.206;24.142;2023-02-08T06:25:56;25.08;;;12.00;;
12214;SDS011;6170;42.206;24.142;2023-02-08T06:28:24;27.83;;;12.10;;
12214;SDS011;6170;42.206;24.142;2023-02-08T06:30:51;28.15;;;13.88;;
12214;SDS011;6170;42.206;24.142;2023-02-08T06:33:18;38.05;;;15.90;;
12214;SDS011;6170;42.206;24.142;2023-02-08T06:35:45;28.67;;;14.70;;
12214;SDS011;6170;42.206;24.142;2023-02-08T06:38:12;38.67;;;17.67;;
12214;SDS011;6170;42.206;24.142;2023-02-08T06:40:40;35.70;;;16.63;;
12214;SDS011;6170;42.206;24.142;2023-02-08T06:43:07;37.53;;;15.90;;
12214;SDS011;6170;42.206;24.142;2023-02-08T06:45:34;32.45;;;15.25;;
12214;SDS011;6170;42.206;24.142;2023-02-08T06:48:01;34.72;;;16.30;;
12214;SDS011;6170;42.206;24.142;2023-02-08T06:50:27;27.15;;;13.63;;
12214;SDS011;6170;42.206;24.142;2023-02-08T06:52:55;33.17;;;16.20;;
12214;SDS011;6170;42.206;24.142;2023-02-08T06:55:22;31.42;;;16.42;;
12214;SDS011;6170;42.206;24.142;2023-02-08T06:57:51;27.95;;;14.18;;
12214;SDS011;6170;42.206;24.142;2023-02-08T07:00:18;38.15;;;16.73;;
12214;SDS011;6170;42.206;24.142;2023-02-08T07:02:45;37.00;;;17.60;;
12214;SDS011;6170;42.206;24.142;2023-02-08T07:05:12;35.08;;;14.95;;
12214;SDS011;6170;42.206;24.142;2023-02-08T07:07:39;34.20;;;15.20;;
12214;SDS011;6170;42.206;24.142;2023-02-08T07:10:06;39.20;;;17.63;;
12214;SDS011;6170;42.206;24.142;2023-02-08T07:12:33;32.65;;;13.75;;
12214;SDS011;6170;42.206;24.142;2023-02-08T07:15:03;29.23;;;14.63;;
12214;SDS011;6170;42.206;24.142;2023-02-08T07:17:30;31.63;;;13.68;;
12214;SDS011;6170;42.206;24.142;2023-02-08T07:19:57;28.33;;;14.85;;
12214;SDS011;6170;42.206;24.142;2023-02-08T07:22:24;30.38;;;13.45;;
12214;SDS011;6170;42.206;24.142;2023-02-08T07:24:51;21.60;;;11.80;;
12214;SDS011;6170;42.206;24.142;2023-02-08T07:27:18;22.73;;;12.52;;
12214;SDS011;6170;42.206;24.142;2023-02-08T07:29:44;23.85;;;12.68;;
12214;SDS011;6170;42.206;24.142;2023-02-08T07:32:12;25.25;;;12.30;;
12214;SDS011;6170;42.206;24.142;2023-02-08T07:34:39;24.73;;;13.75;;
12214;SDS011;6170;42.206;24.142;2023-02-08T07:37:06;28.80;;;16.00;;
12214;SDS011;6170;42.206;24.142;2023-02-08T07:39:33;30.20;;;16.75;;
12214;SDS011;6170;42.206;24.142;2023-02-08T07:42:00;27.77;;;15.50;;
12214;SDS011;6170;42.206;24.142;2023-02-08T07:44:27;26.83;;;14.68;;
12214;SDS011;6170;42.206;24.142;2023-02-08T07:46:53;29.05;;;15.40;;
12214;SDS011;6170;42.206;24.142;2023-02-08T07:49:22;24.20;;;13.68;;
12214;SDS011;6170;42.206;24.142;2023-02-08T07:51:49;23.77;;;13.65;;
12214;SDS011;6170;42.206;24.142;2023-02-08T07:54:15;24.88;;;12.85;;
12214;SDS011;6170;42.206;24.142;2023-02-08T07:56:42;20.55;;;11.57;;
12214;SDS011;6170;42.206;24.142;2023-02-08T07:59:09;27.90;;;14.05;;
12214;SDS011;6170;42.206;24.142;2023-02-08T08:01:36;25.70;;;13.07;;
12214;SDS011;6170;42.206;24.142;2023-02-08T08:04:03;20.85;;;12.68;;
12214;SDS011;6170;42.206;24.142;2023-02-08T08:06:31;22.50;;;12.93;;
12214;SDS011;6170;42.206;24.142;2023-02-08T08:08:58;24.35;;;13.13;;
12214;SDS011;6170;42.206;24.142;2023-02-08T08:11:25;21.83;;;12.50;;
12214;SDS011;6170;42.206;24.142;2023-02-08T08:13:52;38.60;;;17.50;;
12214;SDS011;6170;42.206;24.142;2023-02-08T08:16:19;51.70;;;22.00;;
12214;SDS011;6170;42.206;24.142;2023-02-08T08:18:46;52.35;;;19.52;;
12214;SDS011;6170;42.206;24.142;2023-02-08T08:21:14;33.08;;;15.18;;
12214;SDS011;6170;42.206;24.142;2023-02-08T08:23:43;42.83;;;18.52;;
12214;SDS011;6170;42.206;24.142;2023-02-08T08:26:11;42.65;;;20.40;;
12214;SDS011;6170;42.206;24.142;2023-02-08T08:28:39;49.58;;;21.63;;
12214;SDS011;6170;42.206;24.142;2023-02-08T08:31:10;31.48;;;15.73;;
12214;SDS011;6170;42.206;24.142;2023-02-08T08:33:38;43.95;;;20.50;;
12214;SDS011;6170;42.206;24.142;2023-02-08T08:36:05;39.35;;;17.67;;
12214;SDS011;6170;42.206;24.142;2023-02-08T08:38:33;37.38;;;17.27;;
12214;SDS011;6170;42.206;24.142;2023-02-08T08:41:02;27.67;;;13.63;;
12214;SDS011;6170;42.206;24.142;2023-02-08T08:43:32;26.15;;;13.55;;
12214;SDS011;6170;42.206;24.142;2023-02-08T08:45:59;26.52;;;14.05;;
12214;SDS011;6170;42.206;24.142;2023-02-08T08:48:26;36.65;;;17.65;;
12214;SDS011;6170;42.206;24.142;2023-02-08T08:50:52;28.95;;;14.23;;
12214;SDS011;6170;42.206;24.142;2023-02-08T08:53:19;26.65;;;14.07;;
12214;SDS011;6170;42.206;24.142;2023-02-08T08:55:47;31.50;;;16.48;;
12214;SDS011;6170;42.206;24.142;2023-02-08T08:58:15;26.77;;;13.63;;
12214;SDS011;6170;42.206;24.142;2023-02-08T09:00:42;28.52;;;15.02;;
12214;SDS011;6170;42.206;24.142;2023-02-08T09:03:09;23.70;;;12.45;;
12214;SDS011;6170;42.206;24.142;2023-02-08T09:05:36;24.02;;;12.75;;
12214;SDS011;6170;42.206;24.142;2023-02-08T09:08:02;21.98;;;11.30;;
12214;SDS011;6170;42.206;24.142;2023-02-08T09:10:30;23.27;;;12.73;;
12214;SDS011;6170;42.206;24.142;2023-02-08T09:12:57;27.70;;;13.60;;
12214;SDS011;6170;42.206;24.142;2023-02-08T09:15:25;26.52;;;13.68;;
12214;SDS011;6170;42.206;24.142;2023-02-08T09:17:52;28.42;;;13.77;;
12214;SDS011;6170;42.206;24.142;2023-02-08T09:20:19;19.85;;;10.73;;
12214;SDS011;6170;42.206;24.142;2023-02-08T09:22:46;20.33;;;11.55;;
12214;SDS011;6170;42.206;24.142;2023-02-08T09:25:13;28.75;;;15.65;;
12214;SDS011;6170;42.206;24.142;2023-02-08T09:27:40;18.23;;;10.85;;
12214;SDS011;6170;42.206;24.142;2023-02-08T09:30:07;20.88;;;12.27;;
12214;SDS011;6170;42.206;24.142;2023-02-08T09:32:36;21.95;;;12.40;;
12214;SDS011;6170;42.206;24.142;2023-02-08T09:35:04;15.52;;;9.05;;
12214;SDS011;6170;42.206;24.142;2023-02-08T09:37:31;21.95;;;11.60;;
12214;SDS011;6170;42.206;24.142;2023-02-08T09:39:58;19.35;;;10.10;;
12214;SDS011;6170;42.206;24.142;2023-02-08T09:42:36;22.45;;;12.38;;
12214;SDS011;6170;42.206;24.142;2023-02-08T09:45:23;13.68;;;7.85;;
12214;SDS011;6170;42.206;24.142;2023-02-08T09:48:15;16.33;;;9.10;;
12214;SDS011;6170;42.206;24.142;2023-02-08T09:50:47;21.67;;;11.80;;
12214;SDS011;6170;42.206;24.142;2023-02-08T09:53:19;27.03;;;15.23;;
12214;SDS011;6170;42.206;24.142;2023-02-08T09:55:49;21.00;;;12.45;;
12214;SDS011;6170;42.206;24.142;2023-02-08T09:58:21;24.40;;;13.73;;
12214;SDS011;6170;42.206;24.142;2023-02-08T10:00:52;29.70;;;14.38;;
12214;SDS011;6170;42.206;24.142;2023-02-08T10:03:24;24.98;;;13.13;;
12214;SDS011;6170;42.206;24.142;2023-02-08T10:05:56;23.30;;;13.32;;
12214;SDS011;6170;42.206;24.142;2023-02-08T10:08:23;21.33;;;11.35;;
12214;SDS011;6170;42.206;24.142;2023-02-08T10:10:54;14.43;;;9.82;;
12214;SDS011;6170;42.206;24.142;2023-02-08T10:13:30;30.35;;;14.52;;
12214;SDS011;6170;42.206;24.142;2023-02-08T10:16:10;18.90;;;11.65;;
12214;SDS011;6170;42.206;24.142;2023-02-08T10:18:49;14.95;;;9.13;;
12214;SDS011;6170;42.206;24.142;2023-02-08T10:21:30;15.55;;;8.23;;
12214;SDS011;6170;42.206;24.142;2023-02-08T10:24:12;11.88;;;7.80;;
12214;SDS011;6170;42.206;24.142;2023-02-08T10:26:52;18.43;;;9.47;;
12214;SDS011;6170;42.206;24.142;2023-02-08T10:29:39;16.08;;;9.73;;
12214;SDS011;6170;42.206;24.142;2023-02-08T10:32:27;14.80;;;8.00;;
12214;SDS011;6170;42.206;24.142;2023-02-08T10:35:04;27.33;;;13.43;;
12214;SDS011;6170;42.206;24.142;2023-02-08T10:37:35;16.25;;;9.63;;
12214;SDS011;6170;42.206;24.142;2023-02-08T10:40:12;15.68;;;10.38;;
12214;SDS011;6170;42.206;24.142;2023-02-08T10:42:55;25.98;;;14.63;;
12214;SDS011;6170;42.206;24.142;2023-02-08T10:45:29;12.98;;;8.10;;
12214;SDS011;6170;42.206;24.142;2023-02-08T10:48:00;22.35;;;12.50;;
12214;SDS011;6170;42.206;24.142;2023-02-08T10:50:36;17.55;;;10.50;;
12214;SDS011;6170;42.206;24.142;2023-02-08T10:53:04;25.10;;;12.55;;
12214;SDS011;6170;42.206;24.142;2023-02-08T10:55:32;19.25;;;11.38;;
12214;SDS011;6170;42.206;24.142;2023-02-08T10:58:03;16.23;;;10.63;;
12214;SDS011;6170;42.206;24.142;2023-02-08T11:00:32;17.45;;;10.98;;
12214;SDS011;6170;42.206;24.142;2023-02-08T11:03:07;25.15;;;16.10;;
12214;SDS011;6170;42.206;24.142;2023-02-08T11:05:42;18.23;;;11.07;;
12214;SDS011;6170;42.206;24.142;2023-02-08T11:08:10;14.90;;;9.63;;
12214;SDS011;6170;42.206;24.142;2023-02-08T11:10:40;15.05;;;8.38;;
12214;SDS011;6170;42.206;24.142;2023-02-08T11:13:14;15.60;;;8.52;;
12214;SDS011;6170;42.206;24.142;2023-02-08T11:18:15;14.20;;;8.48;;
12214;SDS011;6170;42.206;24.142;2023-02-08T11:20:48;14.90;;;8.77;;
12214;SDS011;6170;42.206;24.142;2023-02-08T11:23:19;18.60;;;11.38;;
12214;SDS011;6170;42.206;24.142;2023-02-08T11:25:48;15.80;;;10.10;;
12214;SDS011;6170;42.206;24.142;2023-02-08T11:28:26;25.90;;;13.40;;
12214;SDS011;6170;42.206;24.142;2023-02-08T11:30:55;16.33;;;10.55;;
12214;SDS011;6170;42.206;24.142;2023-02-08T11:33:23;24.65;;;14.77;;
12214;SDS011;6170;42.206;24.142;2023-02-08T11:36:00;20.90;;;10.10;;
12214;SDS011;6170;42.206;24.142;2023-02-08T11:38:33;17.33;;;10.57;;
12214;SDS011;6170;42.206;24.142;2023-02-08T11:41:01;13.27;;;7.57;;
12214;SDS011;6170;42.206;24.142;2023-02-08T11:43:31;41.05;;;19.20;;
12214;SDS011;6170;42.206;24.142;2023-02-08T11:46:00;19.63;;;10.98;;
12214;SDS011;6170;42.206;24.142;2023-02-08T11:48:38;34.45;;;16.45;;
12214;SDS011;6170;42.206;24.142;2023-02-08T11:51:13;13.38;;;7.15;;
12214;SDS011;6170;42.206;24.142;2023-02-08T11:53:50;16.52;;;9.07;;
12214;SDS011;6170;42.206;24.142;2023-02-08T11:56:18;13.07;;;8.73;;
12214;SDS011;6170;42.206;24.142;2023-02-08T11:58:54;10.20;;;6.30;;
12214;SDS011;6170;42.206;24.142;2023-02-08T12:01:24;15.07;;;7.60;;
12214;SDS011;6170;42.206;24.142;2023-02-08T12:03:53;21.48;;;11.55;;
12214;SDS011;6170;42.206;24.142;2023-02-08T12:06:27;7.40;;;4.70;;
12214;SDS011;6170;42.206;24.142;2023-02-08T12:09:09;15.93;;;9.00;;
12214;SDS011;6170;42.206;24.142;2023-02-08T12:11:46;10.00;;;6.22;;
12214;SDS011;6170;42.206;24.142;2023-02-08T12:14:24;10.32;;;6.03;;
12214;SDS011;6170;42.206;24.142;2023-02-08T12:17:05;8.45;;;5.13;;
12214;SDS011;6170;42.206;24.142;2023-02-08T12:19:52;10.13;;;5.97;;
12214;SDS011;6170;42.206;24.142;2023-02-08T12:22:30;8.85;;;5.68;;
12214;SDS011;6170;42.206;24.142;2023-02-08T12:25:01;14.10;;;6.70;;
12214;SDS011;6170;42.206;24.142;2023-02-08T12:27:44;20.40;;;9.80;;
12214;SDS011;6170;42.206;24.142;2023-02-08T12:30:20;28.33;;;13.35;;
12214;SDS011;6170;42.206;24.142;2023-02-08T12:32:56;14.07;;;7.93;;
12214;SDS011;6170;42.206;24.142;2023-02-08T12:35:50;14.25;;;6.22;;
12214;SDS011;6170;42.206;24.142;2023-02-08T12:38:28;9.10;;;5.70;;
12214;SDS011;6170;42.206;24.142;2023-02-08T12:41:22;9.07;;;4.97;;
12214;SDS011;6170;42.206;24.142;2023-02-08T12:43:56;11.38;;;6.15;;
12214;SDS011;6170;42.206;24.142;2023-02-08T12:46:45;10.77;;;6.20;;
12214;SDS011;6170;42.206;24.142;2023-02-08T12:49:21;10.68;;;5.88;;
12214;SDS011;6170;42.206;24.142;2023-02-08T12:52:03;11.95;;;6.85;;
12214;SDS011;6170;42.206;24.142;2023-02-08T12:54:44;10.05;;;6.15;;
12214;SDS011;6170;42.206;24.142;2023-02-08T12:57:16;9.68;;;5.75;;
12214;SDS011;6170;42.206;24.142;2023-02-08T12:59:45;9.02;;;5.82;;
12214;SDS011;6170;42.206;24.142;2023-02-08T13:02:17;10.98;;;6.40;;
12214;SDS011;6170;42.206;24.142;2023-02-08T13:04:48;11.25;;;6.57;;
12214;SDS011;6170;42.206;24.142;2023-02-08T13:07:19;13.65;;;7.25;;
12214;SDS011;6170;42.206;24.142;2023-02-08T13:09:54;20.05;;;9.73;;
12214;SDS011;6170;42.206;24.142;2023-02-08T13:12:28;16.50;;;8.35;;
12214;SDS011;6170;42.206;24.142;2023-02-08T13:14:59;18.98;;;7.10;;
12214;SDS011;6170;42.206;24.142;2023-02-08T13:17:40;13.00;;;6.50;;
12214;SDS011;6170;42.206;24.142;2023-02-08T13:20:17;17.48;;;10.07;;
12214;SDS011;6170;42.206;24.142;2023-02-08T13:22:52;19.40;;;9.13;;
12214;SDS011;6170;42.206;24.142;2023-02-08T13:25:27;17.73;;;8.73;;
12214;SDS011;6170;42.206;24.142;2023-02-08T13:27:59;15.05;;;7.78;;
12214;SDS011;6170;42.206;24.142;2023-02-08T13:30:27;12.23;;;6.65;;
12214;SDS011;6170;42.206;24.142;2023-02-08T13:32:54;28.75;;;12.93;;
12214;SDS011;6170;42.206;24.142;2023-02-08T13:35:23;28.13;;;13.10;;
12214;SDS011;6170;42.206;24.142;2023-02-08T13:37:52;16.52;;;8.32;;
12214;SDS011;6170;42.206;24.142;2023-02-08T13:40:25;11.10;;;6.38;;
12214;SDS011;6170;42.206;24.142;2023-02-08T13:42:57;16.48;;;8.85;;
12214;SDS011;6170;42.206;24.142;2023-02-08T13:45:27;19.48;;;9.57;;
12214;SDS011;6170;42.206;24.142;2023-02-08T13:47:57;13.73;;;7.55;;
12214;SDS011;6170;42.206;24.142;2023-02-08T13:50:42;15.27;;;8.50;;
12214;SDS011;6170;42.206;24.142;2023-02-08T13:53:12;15.98;;;8.43;;
12214;SDS011;6170;42.206;24.142;2023-02-08T13:58:35;21.00;;;10.60;;
12214;SDS011;6170;42.206;24.142;2023-02-08T14:01:30;20.80;;;10.57;;
12214;SDS011;6170;42.206;24.142;2023-02-08T14:04:15;27.23;;;12.05;;
12214;SDS011;6170;42.206;24.142;2023-02-08T14:06:54;17.48;;;8.02;;
12214;SDS011;6170;42.206;24.142;2023-02-08T14:09:25;14.88;;;7.07;;
12214;SDS011;6170;42.206;24.142;2023-02-08T14:12:03;33.10;;;15.15;;
12214;SDS011;6170;42.206;24.142;2023-02-08T14:14:37;22.63;;;10.85;;
12214;SDS011;6170;42.206;24.142;2023-02-08T14:17:18;59.53;;;24.35;;
12214;SDS011;6170;42.206;24.142;2023-02-08T14:19:54;17.20;;;7.75;;
12214;SDS011;6170;42.206;24.142;2023-02-08T14:22:23;16.90;;;8.55;;
12214;SDS011;6170;42.206;24.142;2023-02-08T14:24:59;20.55;;;10.23;;
12214;SDS011;6170;42.206;24.142;2023-02-08T14:27:30;17.17;;;8.60;;
12214;SDS011;6170;42.206;24.142;2023-02-08T14:30:04;11.63;;;6.35;;
12214;SDS011;6170;42.206;24.142;2023-02-08T14:32:33;18.23;;;8.27;;
12214;SDS011;6170;42.206;24.142;2023-02-08T14:35:03;12.23;;;6.45;;
12214;SDS011;6170;42.206;24.142;2023-02-08T14:37:32;11.88;;;5.88;;
12214;SDS011;6170;42.206;24.142;2023-02-08T14:43:01;12.60;;;5.65;;
12214;SDS011;6170;42.206;24.142;2023-02-08T14:45:30;14.23;;;7.38;;
12214;SDS011;6170;42.206;24.142;2023-02-08T14:48:01;16.13;;;7.45;;
12214;SDS011;6170;42.206;24.142;2023-02-08T14:53:28;21.27;;;12.02;;
12214;SDS011;6170;42.206;24.142;2023-02-08T14:56:02;26.25;;;11.23;;
12214;SDS011;6170;42.206;24.142;2023-02-08T14:58:36;24.98;;;12.73;;
12214;SDS011;6170;42.206;24.142;2023-02-08T15:01:07;39.35;;;16.80;;
12214;SDS011;6170;42.206;24.142;2023-02-08T15:06:20;46.65;;;20.33;;
12214;SDS011;6170;42.206;24.142;2023-02-08T15:09:03;46.55;;;23.80;;